Thousand Oaks, CA

8:55 PM PDT on July 24, 2016 (GMT -0700)
Santa Rosa Valley | | Change Station

Elev 361 ft 34.24 °N, 118.92 °W | Updated 4 minutes ago

Clear
Clear
80.1 °F
Feels Like 82 °F
N
0.0
Wind Variable Wind from West

Today
High -- | Low -- °F
--% Chance of Precip.
Yesterday
High -- | Low -- °F
Precip. -- in
Pressure 29.90 in
Visibility 7.0 miles
Clouds Clear
Heat Index 82 °F
Dew Point 68.0 °F
Humidity 64%
Rainfall 0.00 in
Snow Depth Not available.
6:01 AM 8:02 PM
Waning Gibbous, 70% visible
METAR KCMA 250255Z 21005KT 7SM CLR 23/19 A2987 RMK AO2 SLP124 T02280189 55001
Pressure 29.90 in
Visibility 7.0 miles
Clouds Clear
Heat Index 82 °F
Dew Point 68.0 °F
Humidity 64%
Rainfall 0.00 in
Snow Depth Not available.
6:01 AM 8:02 PM
Waning Gibbous, 70% visible
METAR KCMA 250255Z 21005KT 7SM CLR 23/19 A2987 RMK AO2 SLP124 T02280189 55001

10-Day Weather Forecast

Almanac

Astronomy

Jul. 24, 2016 Rise Set
Actual Time
Civil Twilight
Nautical Twilight
Astronomical Twilight
Moon
Length of Visible Light
Length of Day
Tomorrow will be .
, % of the Moon is Illuminated

Today's Extremes

State Highs State Lows

Community

WunderPhotos

Upload Photos

1,927,256 photos uploaded!

WunderBlog® & News

Nearby

Air Quality

  Air Quality AQ Index Pollutant
Not available.

Snow Depth

Station Depth Elevation

Earthquake Activity

City Distance Mag. Time & Date
Minimum magnitude displayed is 2.5.

Coastal Water Temperatures

Place Temperature

Stations

Nearby Weather Stations

Station Location Temp. Windchill Dew Point Humidity Wind Precip. Elev Updated Type
                   

Watches & Warnings

There are currently no watches in effect.